sensor_id;sensor_type;location;lat;lon;timestamp;temperature;humidity
3876;DHT22;1953;51.222;6.624;2023-04-25T00:04:39;8.30;1.00
3876;DHT22;1953;51.222;6.624;2023-04-25T00:11:08;8.20;1.00
3876;DHT22;1953;51.222;6.624;2023-04-25T00:15:50;8.30;1.00
3876;DHT22;1953;51.222;6.624;2023-04-25T00:20:35;8.30;1.00
3876;DHT22;1953;51.222;6.624;2023-04-25T00:25:17;8.40;1.00
3876;DHT22;1953;51.222;6.624;2023-04-25T00:30:01;8.40;1.00
3876;DHT22;1953;51.222;6.624;2023-04-25T00:34:44;8.50;1.00
3876;DHT22;1953;51.222;6.624;2023-04-25T00:39:27;8.50;1.00
3876;DHT22;1953;51.222;6.624;2023-04-25T00:44:10;8.50;1.00
3876;DHT22;1953;51.222;6.624;2023-04-25T00:48:55;8.50;1.00
3876;DHT22;1953;51.222;6.624;2023-04-25T00:53:38;8.60;1.00
3876;DHT22;1953;51.222;6.624;2023-04-25T00:58:22;8.60;1.00
3876;DHT22;1953;51.222;6.624;2023-04-25T01:03:05;8.60;1.00
3876;DHT22;1953;51.222;6.624;2023-04-25T01:07:49;8.70;1.00
3876;DHT22;1953;51.222;6.624;2023-04-25T01:12:31;8.70;1.00
3876;DHT22;1953;51.222;6.624;2023-04-25T01:17:14;8.60;1.00
3876;DHT22;1953;51.222;6.624;2023-04-25T01:21:58;8.60;1.00
3876;DHT22;1953;51.222;6.624;2023-04-25T01:26:41;8.60;1.00
3876;DHT22;1953;51.222;6.624;2023-04-25T01:31:32;8.60;1.00
3876;DHT22;1953;51.222;6.624;2023-04-25T01:36:15;8.60;1.00
3876;DHT22;1953;51.222;6.624;2023-04-25T01:40:59;8.60;1.00
3876;DHT22;1953;51.222;6.624;2023-04-25T01:45:42;8.50;1.00
3876;DHT22;1953;51.222;6.624;2023-04-25T01:50:25;8.50;1.00
3876;DHT22;1953;51.222;6.624;2023-04-25T01:55:08;8.50;1.00
3876;DHT22;1953;51.222;6.624;2023-04-25T01:59:54;8.50;1.00
3876;DHT22;1953;51.222;6.624;2023-04-25T02:04:39;8.50;1.00
3876;DHT22;1953;51.222;6.624;2023-04-25T02:09:22;8.60;1.00
3876;DHT22;1953;51.222;6.624;2023-04-25T02:14:04;8.60;1.00
3876;DHT22;1953;51.222;6.624;2023-04-25T02:18:48;8.70;1.00
3876;DHT22;1953;51.222;6.624;2023-04-25T02:23:33;8.70;1.00
3876;DHT22;1953;51.222;6.624;2023-04-25T02:28:16;8.70;1.00
3876;DHT22;1953;51.222;6.624;2023-04-25T02:32:59;9.20;1.00
3876;DHT22;1953;51.222;6.624;2023-04-25T02:37:43;8.70;1.00
3876;DHT22;1953;51.222;6.624;2023-04-25T02:42:26;8.60;1.00
3876;DHT22;1953;51.222;6.624;2023-04-25T02:47:08;8.60;1.00
3876;DHT22;1953;51.222;6.624;2023-04-25T02:51:51;8.60;1.00
3876;DHT22;1953;51.222;6.624;2023-04-25T02:56:35;8.50;1.00
3876;DHT22;1953;51.222;6.624;2023-04-25T03:01:17;8.50;1.00
3876;DHT22;1953;51.222;6.624;2023-04-25T03:06:00;8.50;1.00
3876;DHT22;1953;51.222;6.624;2023-04-25T03:10:42;8.50;1.00
3876;DHT22;1953;51.222;6.624;2023-04-25T03:15:26;8.50;1.00
3876;DHT22;1953;51.222;6.624;2023-04-25T03:20:10;8.40;1.00
3876;DHT22;1953;51.222;6.624;2023-04-25T03:24:53;8.30;1.00
3876;DHT22;1953;51.222;6.624;2023-04-25T03:29:35;8.20;1.00
3876;DHT22;1953;51.222;6.624;2023-04-25T03:34:19;8.20;1.00
3876;DHT22;1953;51.222;6.624;2023-04-25T03:39:02;8.20;1.00
3876;DHT22;1953;51.222;6.624;2023-04-25T03:43:45;8.20;1.00
3876;DHT22;1953;51.222;6.624;2023-04-25T03:48:27;8.10;1.00
3876;DHT22;1953;51.222;6.624;2023-04-25T03:53:11;8.00;1.00
3876;DHT22;1953;51.222;6.624;2023-04-25T03:57:54;8.00;1.00
3876;DHT22;1953;51.222;6.624;2023-04-25T04:02:36;8.00;1.00
3876;DHT22;1953;51.222;6.624;2023-04-25T04:07:20;8.90;1.00
3876;DHT22;1953;51.222;6.624;2023-04-25T04:12:04;7.90;1.00
3876;DHT22;1953;51.222;6.624;2023-04-25T04:16:46;7.90;1.00
3876;DHT22;1953;51.222;6.624;2023-04-25T04:21:29;7.80;1.00
3876;DHT22;1953;51.222;6.624;2023-04-25T04:26:13;7.80;1.00
3876;DHT22;1953;51.222;6.624;2023-04-25T04:30:57;7.80;1.00
3876;DHT22;1953;51.222;6.624;2023-04-25T04:35:42;7.80;1.00
3876;DHT22;1953;51.222;6.624;2023-04-25T04:40:24;7.80;1.00
3876;DHT22;1953;51.222;6.624;2023-04-25T04:45:08;7.80;1.00
3876;DHT22;1953;51.222;6.624;2023-04-25T04:49:52;7.80;1.00
3876;DHT22;1953;51.222;6.624;2023-04-25T04:54:35;7.70;1.00
3876;DHT22;1953;51.222;6.624;2023-04-25T04:59:17;7.70;1.00
3876;DHT22;1953;51.222;6.624;2023-04-25T05:04:00;7.70;1.00
3876;DHT22;1953;51.222;6.624;2023-04-25T05:08:45;7.80;1.00
3876;DHT22;1953;51.222;6.624;2023-04-25T05:13:27;7.70;1.00
3876;DHT22;1953;51.222;6.624;2023-04-25T05:18:10;7.70;1.00
3876;DHT22;1953;51.222;6.624;2023-04-25T05:22:52;7.70;1.00
3876;DHT22;1953;51.222;6.624;2023-04-25T05:27:36;7.70;1.00
3876;DHT22;1953;51.222;6.624;2023-04-25T05:32:19;7.70;1.00
3876;DHT22;1953;51.222;6.624;2023-04-25T05:37:01;7.80;1.00
3876;DHT22;1953;51.222;6.624;2023-04-25T05:41:44;7.90;1.00
3876;DHT22;1953;51.222;6.624;2023-04-25T05:46:28;7.90;1.00
3876;DHT22;1953;51.222;6.624;2023-04-25T05:51:10;8.10;1.00
3876;DHT22;1953;51.222;6.624;2023-04-25T05:55:53;8.20;1.00
3876;DHT22;1953;51.222;6.624;2023-04-25T06:00:35;8.30;1.00
3876;DHT22;1953;51.222;6.624;2023-04-25T06:05:20;8.30;1.00
3876;DHT22;1953;51.222;6.624;2023-04-25T06:10:03;8.30;1.00
3876;DHT22;1953;51.222;6.624;2023-04-25T06:14:47;8.40;1.00
3876;DHT22;1953;51.222;6.624;2023-04-25T06:19:30;8.50;1.00
3876;DHT22;1953;51.222;6.624;2023-04-25T06:24:13;8.70;1.00
3876;DHT22;1953;51.222;6.624;2023-04-25T06:28:56;8.80;1.00
3876;DHT22;1953;51.222;6.624;2023-04-25T06:33:38;8.70;1.00
3876;DHT22;1953;51.222;6.624;2023-04-25T06:38:21;8.80;1.00
3876;DHT22;1953;51.222;6.624;2023-04-25T06:43:05;8.80;1.00
3876;DHT22;1953;51.222;6.624;2023-04-25T06:47:47;8.90;1.00
3876;DHT22;1953;51.222;6.624;2023-04-25T06:52:30;9.00;1.00
3876;DHT22;1953;51.222;6.624;2023-04-25T06:57:13;9.00;1.00
3876;DHT22;1953;51.222;6.624;2023-04-25T07:01:57;9.00;1.00
3876;DHT22;1953;51.222;6.624;2023-04-25T07:06:39;9.10;1.00
3876;DHT22;1953;51.222;6.624;2023-04-25T07:11:24;9.00;1.00
3876;DHT22;1953;51.222;6.624;2023-04-25T07:16:06;9.20;1.00
3876;DHT22;1953;51.222;6.624;2023-04-25T07:20:50;9.20;1.00
3876;DHT22;1953;51.222;6.624;2023-04-25T07:25:33;9.30;1.00
3876;DHT22;1953;51.222;6.624;2023-04-25T07:30:16;9.40;1.00
3876;DHT22;1953;51.222;6.624;2023-04-25T07:34:58;9.50;1.00
3876;DHT22;1953;51.222;6.624;2023-04-25T07:39:44;9.80;1.00
3876;DHT22;1953;51.222;6.624;2023-04-25T07:44:28;9.90;1.00
3876;DHT22;1953;51.222;6.624;2023-04-25T07:49:11;10.00;1.00
3876;DHT22;1953;51.222;6.624;2023-04-25T07:53:54;9.90;1.00
3876;DHT22;1953;51.222;6.624;2023-04-25T07:58:38;9.80;1.00
3876;DHT22;1953;51.222;6.624;2023-04-25T08:03:20;9.70;1.00
3876;DHT22;1953;51.222;6.624;2023-04-25T08:08:03;9.60;1.00
3876;DHT22;1953;51.222;6.624;2023-04-25T08:12:47;9.80;1.00
3876;DHT22;1953;51.222;6.624;2023-04-25T08:17:31;10.00;1.00
3876;DHT22;1953;51.222;6.624;2023-04-25T08:22:13;10.10;1.00
3876;DHT22;1953;51.222;6.624;2023-04-25T08:26:56;11.20;1.00
3876;DHT22;1953;51.222;6.624;2023-04-25T08:31:40;10.20;1.00
3876;DHT22;1953;51.222;6.624;2023-04-25T08:36:23;10.40;1.00
3876;DHT22;1953;51.222;6.624;2023-04-25T08:41:06;10.50;1.00
3876;DHT22;1953;51.222;6.624;2023-04-25T08:45:49;10.70;1.00
3876;DHT22;1953;51.222;6.624;2023-04-25T08:50:32;10.90;1.00
3876;DHT22;1953;51.222;6.624;2023-04-25T08:55:17;11.00;1.00
3876;DHT22;1953;51.222;6.624;2023-04-25T09:00:00;10.90;1.00
3876;DHT22;1953;51.222;6.624;2023-04-25T09:04:44;10.90;1.00
3876;DHT22;1953;51.222;6.624;2023-04-25T09:09:27;10.90;1.00
3876;DHT22;1953;51.222;6.624;2023-04-25T09:14:15;10.90;1.00
3876;DHT22;1953;51.222;6.624;2023-04-25T09:18:58;10.90;1.00
3876;DHT22;1953;51.222;6.624;2023-04-25T09:23:43;11.10;1.00
3876;DHT22;1953;51.222;6.624;2023-04-25T09:28:26;11.50;1.00
3876;DHT22;1953;51.222;6.624;2023-04-25T09:33:11;11.60;1.00
3876;DHT22;1953;51.222;6.624;2023-04-25T09:37:56;11.40;1.00
3876;DHT22;1953;51.222;6.624;2023-04-25T09:42:41;11.40;1.00
3876;DHT22;1953;51.222;6.624;2023-04-25T09:47:25;10.50;1.00
3876;DHT22;1953;51.222;6.624;2023-04-25T09:52:13;11.50;1.00
3876;DHT22;1953;51.222;6.624;2023-04-25T09:56:56;11.50;1.00
3876;DHT22;1953;51.222;6.624;2023-04-25T10:01:40;11.60;1.00
3876;DHT22;1953;51.222;6.624;2023-04-25T10:06:24;11.80;1.00
3876;DHT22;1953;51.222;6.624;2023-04-25T10:11:09;11.90;1.00
3876;DHT22;1953;51.222;6.624;2023-04-25T10:15:52;11.80;1.00
3876;DHT22;1953;51.222;6.624;2023-04-25T10:20:36;11.80;1.00
3876;DHT22;1953;51.222;6.624;2023-04-25T10:25:19;11.80;1.00
3876;DHT22;1953;51.222;6.624;2023-04-25T10:30:04;11.80;1.00
3876;DHT22;1953;51.222;6.624;2023-04-25T10:34:48;12.00;1.00
3876;DHT22;1953;51.222;6.624;2023-04-25T10:39:32;12.10;1.00
3876;DHT22;1953;51.222;6.624;2023-04-25T10:44:15;12.20;1.00
3876;DHT22;1953;51.222;6.624;2023-04-25T10:49:00;12.10;1.00
3876;DHT22;1953;51.222;6.624;2023-04-25T10:53:44;12.20;1.00
3876;DHT22;1953;51.222;6.624;2023-04-25T10:58:26;12.40;1.00
3876;DHT22;1953;51.222;6.624;2023-04-25T11:03:09;12.40;1.00
3876;DHT22;1953;51.222;6.624;2023-04-25T11:07:54;12.80;1.00
3876;DHT22;1953;51.222;6.624;2023-04-25T11:12:38;13.00;1.00
3876;DHT22;1953;51.222;6.624;2023-04-25T11:17:25;13.10;1.00
3876;DHT22;1953;51.222;6.624;2023-04-25T11:22:07;13.20;1.00
3876;DHT22;1953;51.222;6.624;2023-04-25T11:26:51;13.20;1.00
3876;DHT22;1953;51.222;6.624;2023-04-25T11:31:34;13.20;1.00
3876;DHT22;1953;51.222;6.624;2023-04-25T11:36:16;13.10;1.00
3876;DHT22;1953;51.222;6.624;2023-04-25T11:40:59;13.10;1.00
3876;DHT22;1953;51.222;6.624;2023-04-25T11:45:46;12.70;1.00
3876;DHT22;1953;51.222;6.624;2023-04-25T11:50:29;12.40;1.00
3876;DHT22;1953;51.222;6.624;2023-04-25T11:55:13;12.30;1.00
3876;DHT22;1953;51.222;6.624;2023-04-25T12:00:05;12.40;1.00
3876;DHT22;1953;51.222;6.624;2023-04-25T12:04:51;12.50;1.00
3876;DHT22;1953;51.222;6.624;2023-04-25T12:12:09;12.60;1.00
3876;DHT22;1953;51.222;6.624;2023-04-25T12:16:54;12.60;1.00
3876;DHT22;1953;51.222;6.624;2023-04-25T12:21:38;12.30;1.00
3876;DHT22;1953;51.222;6.624;2023-04-25T12:26:20;12.60;1.00
3876;DHT22;1953;51.222;6.624;2023-04-25T12:31:06;12.70;1.00
3876;DHT22;1953;51.222;6.624;2023-04-25T12:35:49;13.40;1.00
3876;DHT22;1953;51.222;6.624;2023-04-25T12:40:32;13.90;1.00
3876;DHT22;1953;51.222;6.624;2023-04-25T12:45:14;14.40;1.00
3876;DHT22;1953;51.222;6.624;2023-04-25T12:49:58;15.30;1.00
3876;DHT22;1953;51.222;6.624;2023-04-25T12:54:41;16.00;1.00
3876;DHT22;1953;51.222;6.624;2023-04-25T12:59:23;17.50;1.00
3876;DHT22;1953;51.222;6.624;2023-04-25T13:04:06;16.90;1.00
3876;DHT22;1953;51.222;6.624;2023-04-25T13:08:50;15.50;1.00
3876;DHT22;1953;51.222;6.624;2023-04-25T13:13:32;15.00;1.00
3876;DHT22;1953;51.222;6.624;2023-04-25T13:18:16;14.20;1.00
3876;DHT22;1953;51.222;6.624;2023-04-25T13:22:58;13.70;1.00
3876;DHT22;1953;51.222;6.624;2023-04-25T13:27:42;13.60;1.00
3876;DHT22;1953;51.222;6.624;2023-04-25T13:32:25;13.90;1.00
3876;DHT22;1953;51.222;6.624;2023-04-25T13:37:08;13.30;1.00
3876;DHT22;1953;51.222;6.624;2023-04-25T13:41:50;13.30;1.00
3876;DHT22;1953;51.222;6.624;2023-04-25T13:46:34;13.30;1.00
3876;DHT22;1953;51.222;6.624;2023-04-25T13:51:18;13.10;1.00
3876;DHT22;1953;51.222;6.624;2023-04-25T13:56:01;13.40;1.00
3876;DHT22;1953;51.222;6.624;2023-04-25T14:00:44;14.90;1.00
3876;DHT22;1953;51.222;6.624;2023-04-25T14:05:29;15.50;1.00
3876;DHT22;1953;51.222;6.624;2023-04-25T14:10:12;14.50;1.00
3876;DHT22;1953;51.222;6.624;2023-04-25T14:14:54;14.40;1.00
3876;DHT22;1953;51.222;6.624;2023-04-25T14:19:37;16.00;1.00
3876;DHT22;1953;51.222;6.624;2023-04-25T14:24:25;16.00;1.00
3876;DHT22;1953;51.222;6.624;2023-04-25T14:29:08;16.00;1.00
3876;DHT22;1953;51.222;6.624;2023-04-25T14:33:53;15.80;1.00
3876;DHT22;1953;51.222;6.624;2023-04-25T14:38:36;16.00;1.00
3876;DHT22;1953;51.222;6.624;2023-04-25T14:43:20;16.60;1.00
3876;DHT22;1953;51.222;6.624;2023-04-25T14:48:03;15.60;1.00
3876;DHT22;1953;51.222;6.624;2023-04-25T14:52:46;14.70;1.00
3876;DHT22;1953;51.222;6.624;2023-04-25T14:57:29;14.10;1.00
3876;DHT22;1953;51.222;6.624;2023-04-25T15:02:13;13.80;1.00
3876;DHT22;1953;51.222;6.624;2023-04-25T15:06:55;13.80;1.00
3876;DHT22;1953;51.222;6.624;2023-04-25T15:11:38;15.00;1.00
3876;DHT22;1953;51.222;6.624;2023-04-25T15:16:21;16.20;1.00
3876;DHT22;1953;51.222;6.624;2023-04-25T15:21:05;16.90;1.00
3876;DHT22;1953;51.222;6.624;2023-04-25T15:25:50;15.70;1.00
3876;DHT22;1953;51.222;6.624;2023-04-25T15:30:33;15.50;1.00
3876;DHT22;1953;51.222;6.624;2023-04-25T15:35:16;16.10;1.00
3876;DHT22;1953;51.222;6.624;2023-04-25T15:40:02;14.70;1.00
3876;DHT22;1953;51.222;6.624;2023-04-25T15:44:47;15.00;1.00
3876;DHT22;1953;51.222;6.624;2023-04-25T15:49:30;16.00;1.00
3876;DHT22;1953;51.222;6.624;2023-04-25T15:54:12;16.80;1.00
3876;DHT22;1953;51.222;6.624;2023-04-25T15:58:57;17.00;1.00
3876;DHT22;1953;51.222;6.624;2023-04-25T16:03:39;17.60;1.00
3876;DHT22;1953;51.222;6.624;2023-04-25T16:08:22;17.20;1.00
3876;DHT22;1953;51.222;6.624;2023-04-25T16:13:05;17.10;1.00
3876;DHT22;1953;51.222;6.624;2023-04-25T16:17:49;16.70;1.00
3876;DHT22;1953;51.222;6.624;2023-04-25T16:22:32;17.00;1.00
3876;DHT22;1953;51.222;6.624;2023-04-25T16:27:14;17.50;1.00
3876;DHT22;1953;51.222;6.624;2023-04-25T16:31:57;17.00;1.00
3876;DHT22;1953;51.222;6.624;2023-04-25T16:36:41;17.20;1.00
3876;DHT22;1953;51.222;6.624;2023-04-25T16:41:24;16.70;1.00
3876;DHT22;1953;51.222;6.624;2023-04-25T16:46:07;16.80;1.00
3876;DHT22;1953;51.222;6.624;2023-04-25T16:50:50;16.60;1.00
3876;DHT22;1953;51.222;6.624;2023-04-25T16:55:34;16.60;1.00
3876;DHT22;1953;51.222;6.624;2023-04-25T17:00:17;16.30;1.00
3876;DHT22;1953;51.222;6.624;2023-04-25T17:05:00;16.50;1.00
3876;DHT22;1953;51.222;6.624;2023-04-25T17:09:42;16.50;1.00
3876;DHT22;1953;51.222;6.624;2023-04-25T17:14:27;16.20;1.00
3876;DHT22;1953;51.222;6.624;2023-04-25T17:19:09;15.80;1.00
3876;DHT22;1953;51.222;6.624;2023-04-25T17:23:52;15.60;1.00
3876;DHT22;1953;51.222;6.624;2023-04-25T17:28:35;15.50;1.00
3876;DHT22;1953;51.222;6.624;2023-04-25T17:33:19;15.60;1.00
3876;DHT22;1953;51.222;6.624;2023-04-25T17:38:02;15.10;1.00
3876;DHT22;1953;51.222;6.624;2023-04-25T17:42:45;14.40;1.00
3876;DHT22;1953;51.222;6.624;2023-04-25T17:47:28;13.80;1.00
3876;DHT22;1953;51.222;6.624;2023-04-25T17:52:12;13.40;1.00
3876;DHT22;1953;51.222;6.624;2023-04-25T17:56:54;13.20;1.00
3876;DHT22;1953;51.222;6.624;2023-04-25T18:01:37;12.80;1.00
3876;DHT22;1953;51.222;6.624;2023-04-25T18:06:20;12.60;1.00
3876;DHT22;1953;51.222;6.624;2023-04-25T18:11:04;12.40;1.00
3876;DHT22;1953;51.222;6.624;2023-04-25T18:15:46;12.20;1.00
3876;DHT22;1953;51.222;6.624;2023-04-25T18:20:29;12.00;1.00
3876;DHT22;1953;51.222;6.624;2023-04-25T18:25:12;12.00;1.00
3876;DHT22;1953;51.222;6.624;2023-04-25T18:29:57;11.70;1.00
3876;DHT22;1953;51.222;6.624;2023-04-25T18:34:39;11.40;1.00
3876;DHT22;1953;51.222;6.624;2023-04-25T18:39:24;11.30;1.00
3876;DHT22;1953;51.222;6.624;2023-04-25T18:44:07;10.40;1.00
3876;DHT22;1953;51.222;6.624;2023-04-25T18:48:51;11.10;1.00
3876;DHT22;1953;51.222;6.624;2023-04-25T18:53:34;10.80;1.00
3876;DHT22;1953;51.222;6.624;2023-04-25T18:58:17;10.90;1.00
3876;DHT22;1953;51.222;6.624;2023-04-25T19:03:00;10.90;1.00
3876;DHT22;1953;51.222;6.624;2023-04-25T19:07:45;10.90;1.00
3876;DHT22;1953;51.222;6.624;2023-04-25T19:12:27;10.90;1.00
3876;DHT22;1953;51.222;6.624;2023-04-25T19:17:10;10.80;1.00
3876;DHT22;1953;51.222;6.624;2023-04-25T19:21:53;10.70;1.00
3876;DHT22;1953;51.222;6.624;2023-04-25T19:26:37;10.80;1.00
3876;DHT22;1953;51.222;6.624;2023-04-25T19:31:19;10.60;1.00
3876;DHT22;1953;51.222;6.624;2023-04-25T19:36:02;10.40;1.00
3876;DHT22;1953;51.222;6.624;2023-04-25T19:40:44;10.40;1.00
3876;DHT22;1953;51.222;6.624;2023-04-25T19:45:28;10.30;1.00
3876;DHT22;1953;51.222;6.624;2023-04-25T19:50:11;10.20;1.00
3876;DHT22;1953;51.222;6.624;2023-04-25T19:54:54;10.10;1.00
3876;DHT22;1953;51.222;6.624;2023-04-25T19:59:42;10.00;1.00
3876;DHT22;1953;51.222;6.624;2023-04-25T20:04:29;9.90;1.00
3876;DHT22;1953;51.222;6.624;2023-04-25T20:09:12;9.70;1.00
3876;DHT22;1953;51.222;6.624;2023-04-25T20:13:54;9.70;1.00
3876;DHT22;1953;51.222;6.624;2023-04-25T20:18:38;9.60;1.00
3876;DHT22;1953;51.222;6.624;2023-04-25T20:23:23;9.50;1.00
3876;DHT22;1953;51.222;6.624;2023-04-25T20:28:05;9.50;1.00
3876;DHT22;1953;51.222;6.624;2023-04-25T20:32:48;9.40;1.00
3876;DHT22;1953;51.222;6.624;2023-04-25T20:37:31;9.40;1.00
3876;DHT22;1953;51.222;6.624;2023-04-25T20:42:15;9.40;1.00
3876;DHT22;1953;51.222;6.624;2023-04-25T20:46:58;9.30;1.00
3876;DHT22;1953;51.222;6.624;2023-04-25T20:51:40;9.30;1.00
3876;DHT22;1953;51.222;6.624;2023-04-25T20:56:23;9.20;1.00
3876;DHT22;1953;51.222;6.624;2023-04-25T21:01:08;9.10;1.00
3876;DHT22;1953;51.222;6.624;2023-04-25T21:05:50;9.10;1.00
3876;DHT22;1953;51.222;6.624;2023-04-25T21:10:33;9.10;1.00
3876;DHT22;1953;51.222;6.624;2023-04-25T21:15:16;9.10;1.00
3876;DHT22;1953;51.222;6.624;2023-04-25T21:20:01;9.00;1.00
3876;DHT22;1953;51.222;6.624;2023-04-25T21:24:50;8.90;1.00
3876;DHT22;1953;51.222;6.624;2023-04-25T21:29:34;8.90;1.00
3876;DHT22;1953;51.222;6.624;2023-04-25T21:34:17;8.80;1.00
3876;DHT22;1953;51.222;6.624;2023-04-25T21:39:01;8.60;1.00
3876;DHT22;1953;51.222;6.624;2023-04-25T21:43:45;8.50;1.00
3876;DHT22;1953;51.222;6.624;2023-04-25T21:48:28;8.40;1.00
3876;DHT22;1953;51.222;6.624;2023-04-25T21:53:10;8.50;1.00
3876;DHT22;1953;51.222;6.624;2023-04-25T21:57:54;8.50;1.00
3876;DHT22;1953;51.222;6.624;2023-04-25T22:02:36;7.70;1.00
3876;DHT22;1953;51.222;6.624;2023-04-25T22:07:20;8.40;1.00
3876;DHT22;1953;51.222;6.624;2023-04-25T22:12:03;8.20;1.00
3876;DHT22;1953;51.222;6.624;2023-04-25T22:16:47;8.10;1.00
3876;DHT22;1953;51.222;6.624;2023-04-25T22:21:30;8.10;1.00
3876;DHT22;1953;51.222;6.624;2023-04-25T22:26:13;8.00;1.00
3876;DHT22;1953;51.222;6.624;2023-04-25T22:30:56;7.90;1.00
3876;DHT22;1953;51.222;6.624;2023-04-25T22:35:40;7.80;1.00
3876;DHT22;1953;51.222;6.624;2023-04-25T22:40:22;7.80;1.00
3876;DHT22;1953;51.222;6.624;2023-04-25T22:45:06;7.70;1.00
3876;DHT22;1953;51.222;6.624;2023-04-25T22:49:49;7.60;1.00
3876;DHT22;1953;51.222;6.624;2023-04-25T22:54:35;7.60;1.00
3876;DHT22;1953;51.222;6.624;2023-04-25T22:59:19;7.60;1.00
3876;DHT22;1953;51.222;6.624;2023-04-25T23:04:02;7.60;1.00
3876;DHT22;1953;51.222;6.624;2023-04-25T23:08:45;7.40;1.00
3876;DHT22;1953;51.222;6.624;2023-04-25T23:13:28;7.40;1.00
3876;DHT22;1953;51.222;6.624;2023-04-25T23:18:11;7.40;1.00
3876;DHT22;1953;51.222;6.624;2023-04-25T23:22:54;7.40;1.00
3876;DHT22;1953;51.222;6.624;2023-04-25T23:27:37;7.30;1.00
3876;DHT22;1953;51.222;6.624;2023-04-25T23:32:21;7.30;1.00
3876;DHT22;1953;51.222;6.624;2023-04-25T23:37:05;7.20;1.00
3876;DHT22;1953;51.222;6.624;2023-04-25T23:41:48;7.20;1.00
3876;DHT22;1953;51.222;6.624;2023-04-25T23:46:30;7.10;1.00
3876;DHT22;1953;51.222;6.624;2023-04-25T23:51:14;7.10;1.00
3876;DHT22;1953;51.222;6.624;2023-04-25T23:55:57;7.00;1.00
